ADDS METAR Data INFO
IDs: Format: Raw Decoded Include TAF

Data at: 1528 UTC 18 Jun 2018

METAR for:KVRB (Vero Beach Muni, FL, US)
Text:KVRB 181453Z 06009KT 10SM SCT024 30/23 A3013 RMK AO2 SLP200 T03000233 50005
Temperature: 30.0°C ( 86°F)
Dewpoint: 23.3°C ( 74°F) [RH = 67%]
Pressure (altimeter):30.13 inches Hg (1020.4 mb) [Sea level pressure: 1020.0 mb]
Winds:from the ENE (60 degrees) at 10 MPH (9 knots; 4.6 m/s)
Visibility:10 or more sm (16+ km)
Ceiling:at least 12,000 feet AGL
Clouds: scattered clouds at 2400 feet AGL